Flight Track Log - Related Links

Times and Time Zones

All times are in EDT time to prevent confusion due to time zone crossing. See the FLG3861 flight status page for this flight to view local times or setup timezone preferences in your user account.

Time Position Orientation Groundspeed Altitude Reporting Facility
EDT Latitude Longitude Course Direction KTS MPH feet Rate Location/Type
Thu 10:12:17 PM 42.2289 -83.3539 38° Northeast 150 173 1,600  Level Cleveland Center
Thu 10:12:41 PM 42.2417 -83.3403 38° Northeast 164 189 2,500 1,899 Climbing Cleveland Center
Thu 10:13:36 PM 42.2736 -83.3053 39° Northeast 180 207 4,100 1,983 Climbing Cleveland Center
Thu 10:14:36 PM 42.2800 -83.2100 85° East 210 242 6,300 2,350 Climbing Cleveland Center
Thu 10:15:36 PM 42.2636 -83.1028 102° East 246 283 8,800 2,100 Climbing Cleveland Center
Thu 10:16:36 PM 42.2747 -82.9853 83° East 280 322 10,500 1,450 Climbing Cleveland Center
Thu 10:17:36 PM 42.2983 -82.8486 77° East 332 382 11,700 1,550 Climbing Cleveland Center
Thu 10:18:36 PM 42.3239 -82.7064 76° East 362 417 13,600 1,700 Climbing Cleveland Center
Thu 10:19:36 PM 42.3472 -82.5581 78° East 386 444 15,100 1,500 Climbing Cleveland Center
Thu 10:20:36 PM 42.3561 -82.4094 85° East 398 458 16,600 1,500 Climbing Cleveland Center
Thu 10:21:36 PM 42.3583 -82.2550 89° East 403 464 18,100 1,350 Climbing Cleveland Center
Thu 10:22:36 PM 42.3586 -82.0978 90° East 409 471 19,300 1,150 Climbing Cleveland Center
Thu 10:23:36 PM 42.3583 -81.9375 90° East 415 478 20,400 1,200 Climbing Cleveland Center
Thu 10:24:36 PM 42.3603 -81.7717 89° East 425 489 21,700 1,150 Climbing Cleveland Center
Thu 10:25:36 PM 42.3578 -81.6086 91° East 425 489 22,700 1,000 Climbing Cleveland Center
Thu 10:26:36 PM 42.3589 -81.4431 89° East 431 496 23,700 1,000 Climbing Cleveland Center
Thu 10:27:36 PM 42.3561 -81.2744 91° East 437 503 24,700 750 Climbing Cleveland Center
Thu 10:28:36 PM 42.3528 -81.1058 91° East 442 509 25,200 550 Climbing Cleveland Center
Thu 10:29:36 PM 42.3556 -80.9344 89° East 442 509 25,800 600 Climbing Cleveland Center
Thu 10:30:36 PM 42.3539 -80.7603 91° East 448 516 26,400 550 Climbing Cleveland Center
Thu 10:31:36 PM 42.3519 -80.5775 91° East 466 536 26,900 300 Climbing Cleveland Center
Thu 10:32:36 PM 42.3517 -80.3978 90° East 477 549 27,000  Climbing Cleveland Center
Thu 10:33:36 PM 42.3492 -80.2067 91° East 463 533 26,900 -900 Descending Cleveland Center
Thu 10:34:36 PM 42.3442 -80.0269 92° East 463 533 25,200 -950 Descending Cleveland Center
Thu 10:35:36 PM 42.3433 -79.8642 90° East 451 519 25,000 -100 Descending Cleveland Center
Thu 10:36:36 PM 42.3400 -79.6872 91° East 451 519 25,000  Level Cleveland Center
Thu 10:37:36 PM 42.3344 -79.5103 92° East 464 534 25,000  Level Cleveland Center
Thu 10:38:36 PM 42.3325 -79.3222 91° East 475 547 25,000  Level Cleveland Center
Thu 10:39:36 PM 42.3281 -79.1339 92° East 486 559 25,000  Level Cleveland Center
Thu 10:40:36 PM 42.3214 -78.9489 93° East 491 565 25,000  Level Cleveland Center
Thu 10:41:36 PM 42.3186 -78.7608 91° East 497 572 25,000  Level Cleveland Center
Thu 10:42:36 PM 42.3136 -78.5728 92° East 497 572 25,000 -350 Level Cleveland Center
Thu 10:43:36 PM 42.3081 -78.3847 92° East 497 572 24,300 -1,400 Descending Cleveland Center
Thu 10:44:36 PM 42.3022 -78.1997 92° East 497 572 22,200 -2,050 Descending Cleveland Center
Thu 10:45:36 PM 42.2964 -78.0231 92° East 486 559 20,200 -1,577 Descending Cleveland Center
Thu 10:47:50 PM 42.2819 -77.6908 93° East 423 487 17,100 -990 Descending New York Center
Thu 10:48:50 PM 42.2764 -77.5361 93° East 408 470 17,000 -50 Descending New York Center
Thu 10:49:50 PM 42.2703 -77.3842 93° East 408 470 17,000  Level New York Center
Thu 10:50:50 PM 42.2661 -77.2325 92° East 408 470 17,000  Level New York Center
Thu 10:51:50 PM 42.2597 -77.0778 93° East 408 470 17,000 -800 Level New York Center
Thu 10:52:50 PM 42.2531 -76.9286 93° East 408 470 15,400 -1,800 Descending New York Center
Thu 10:53:50 PM 42.2478 -76.7881 93° East 393 452 13,400 -2,050 Descending New York Center
Thu 10:54:50 PM 42.2383 -76.6442 95° East 368 423 11,300 -1,600 Descending New York Center
Thu 10:55:50 PM 42.2208 -76.5306 102° East 336 387 10,200 -1,400 Descending New York Center
Thu 10:56:50 PM 42.1906 -76.4272 112° Southeast 305 351 8,500 -1,700 Descending New York Center
Thu 10:57:50 PM 42.1617 -76.3297 112° Southeast 293 337 6,800 -1,600 Descending New York Center
Thu 10:58:50 PM 42.1328 -76.2350 112° Southeast 280 322 5,300 -1,400 Descending New York Center
Thu 10:59:50 PM 42.0994 -76.1456 117° Southeast 270 311 4,000 -650 Descending New York Center
Thu 11:00:50 PM 42.0719 -76.0622 114° Southeast 256 295 4,000  Level New York Center
Thu 11:01:50 PM 42.0481 -75.9933 115° Southeast 246 283 4,000  Level New York Center
Thu 11:02:50 PM 42.0203 -75.9103 114° Southeast 222 255 4,000  Level New York Center
Thu 11:03:50 PM 42.0436 -75.8561 60° Northeast 164 189 4,000  Level New York Center
Thu 11:04:50 PM 42.0900 -75.8850 335° Northwest 132 152 4,000 -350 Level New York Center
Thu 11:05:50 PM 42.1306 -75.9161 330° Northwest 137 158 3,300 -700 Descending New York Center
Thu 11:07:00 PM 42.2000 -75.9667 North  Level FlightAware Approximate
Thu 11:14:00 PM 42.2084 -75.9796 North  Level Estimated
Thu 11:15:00 PM 42.2084 -75.9796 North  Level Estimated
Thu 11:16:00 PM 42.2084 -75.9796 North  Level Estimated
Thu 11:17:00 PM 42.2084 -75.9796 North  Level Estimated
Thu 11:18:00 PM 42.2084 -75.9796 North  Level Estimated
Thu 11:19:00 PM 42.2084 -75.9796 North  Level Estimated
Thu 11:20:00 PM 42.2084 -75.9796 North  Level Estimated

Login

Don't have an account? Register now (free) for customized features, flight alerts, and more!